Time;durP1;ratioP1;P1;durP2;ratioP2;P2;SDS_P1;SDS_P2;PMS_P1;PMS_P2;Temp;Humidity;BMP_temperature;BMP_pressure;BME280_temperature;BME280_humidity;BME280_pressure;Samples;Min_cycle;Max_cycle;Signal;HPM_P1;HPM_P2
2022/02/22 00:00:15;;;;;;;59.40;3.58;;;;;;;;;;5094748;28;20207;-69
2022/02/22 00:02:44;;;;;;;62.72;3.95;;;;;;;;;;5094829;28;20728;-69
2022/02/22 00:05:11;;;;;;;61.90;3.60;;;;;;;;;;5094786;28;20662;-69
2022/02/22 00:07:39;;;;;;;68.05;3.50;;;;;;;;;;5094851;28;20520;-70
2022/02/22 00:10:07;;;;;;;60.05;3.13;;;;;;;;;;5094377;28;20296;-70
2022/02/22 00:12:34;;;;;;;60.28;3.30;;;;;;;;;;5094393;28;20244;-70
2022/02/22 00:15:02;;;;;;;60.10;3.17;;;;;;;;;;5094714;28;20309;-69
2022/02/22 00:17:33;;;;;;;67.93;3.58;;;;;;;;;;5094736;28;20301;-69
2022/02/22 00:20:02;;;;;;;62.60;3.70;;;;;;;;;;5094693;28;20304;-69
2022/02/22 00:22:29;;;;;;;59.45;3.17;;;;;;;;;;5094439;28;20207;-69
2022/02/22 00:24:56;;;;;;;64.20;3.50;;;;;;;;;;5094247;28;20311;-70
2022/02/22 00:27:23;;;;;;;61.38;3.60;;;;;;;;;;5093917;28;20212;-69
2022/02/22 00:29:50;;;;;;;61.10;3.85;;;;;;;;;;5094048;28;20223;-70
2022/02/22 00:32:18;;;;;;;58.87;3.67;;;;;;;;;;5094009;28;20320;-68
2022/02/22 00:34:45;;;;;;;60.92;3.75;;;;;;;;;;5094096;28;20468;-68
2022/02/22 00:37:13;;;;;;;60.15;3.10;;;;;;;;;;5093934;28;20227;-68
2022/02/22 00:39:40;;;;;;;59.72;3.22;;;;;;;;;;5094026;28;20300;-69
2022/02/22 00:42:08;;;;;;;60.38;2.88;;;;;;;;;;5093946;28;20204;-68
2022/02/22 00:44:35;;;;;;;59.17;3.40;;;;;;;;;;5093824;28;20224;-69
2022/02/22 00:47:02;;;;;;;64.60;3.72;;;;;;;;;;5093982;28;20207;-69
2022/02/22 00:49:29;;;;;;;63.22;3.20;;;;;;;;;;5093759;28;20202;-69
2022/02/22 00:51:56;;;;;;;61.40;2.92;;;;;;;;;;5093548;28;20311;-68
2022/02/22 00:54:25;;;;;;;62.08;3.17;;;;;;;;;;5093203;28;20221;-69
2022/02/22 00:56:52;;;;;;;59.42;3.20;;;;;;;;;;5093961;28;20292;-68
2022/02/22 00:59:19;;;;;;;65.00;3.30;;;;;;;;;;5093498;28;20206;-69
2022/02/22 01:01:46;;;;;;;62.92;3.05;;;;;;;;;;5093889;28;20284;-68
2022/02/22 01:04:14;;;;;;;59.95;2.80;;;;;;;;;;5093583;28;20234;-69
2022/02/22 01:06:41;;;;;;;61.13;3.20;;;;;;;;;;5093780;28;20554;-68
2022/02/22 01:09:08;;;;;;;65.93;3.63;;;;;;;;;;5093295;28;20209;-69
2022/02/22 01:11:37;;;;;;;61.33;3.03;;;;;;;;;;5093827;28;20229;-68
2022/02/22 01:14:04;;;;;;;62.42;2.80;;;;;;;;;;5093368;28;20311;-69
2022/02/22 01:16:31;;;;;;;65.05;4.30;;;;;;;;;;5093465;28;20680;-70
2022/02/22 01:18:59;;;;;;;59.35;3.00;;;;;;;;;;5093324;28;20208;-69
2022/02/22 01:21:26;;;;;;;62.92;3.45;;;;;;;;;;5092499;28;20232;-69
2022/02/22 01:23:53;;;;;;;67.13;3.58;;;;;;;;;;5093311;28;20208;-68
2022/02/22 01:26:20;;;;;;;61.15;3.30;;;;;;;;;;5093624;28;20204;-69
2022/02/22 01:28:49;;;;;;;67.03;3.38;;;;;;;;;;5093425;28;20266;-69
2022/02/22 01:31:16;;;;;;;61.35;3.22;;;;;;;;;;5093397;28;20513;-68
2022/02/22 01:33:43;;;;;;;65.63;2.90;;;;;;;;;;5093089;28;20208;-68
2022/02/22 01:36:10;;;;;;;63.83;3.33;;;;;;;;;;5093522;28;20641;-69
2022/02/22 01:38:37;;;;;;;62.35;4.45;;;;;;;;;;5093001;28;20644;-68
2022/02/22 01:41:04;;;;;;;59.45;3.15;;;;;;;;;;5093100;28;20204;-69
2022/02/22 01:43:32;;;;;;;67.45;3.60;;;;;;;;;;5093095;28;20210;-69
2022/02/22 01:46:00;;;;;;;62.22;3.50;;;;;;;;;;5092983;28;20674;-69
2022/02/22 01:48:27;;;;;;;61.95;3.58;;;;;;;;;;5093335;28;20291;-70
2022/02/22 01:50:54;;;;;;;62.47;3.30;;;;;;;;;;5093268;28;20232;-72
2022/02/22 01:53:21;;;;;;;60.85;3.20;;;;;;;;;;5093137;28;20239;-70
2022/02/22 01:55:49;;;;;;;66.13;3.30;;;;;;;;;;5093051;28;20625;-71
2022/02/22 01:58:16;;;;;;;59.72;3.78;;;;;;;;;;5092623;28;20204;-70
2022/02/22 02:00:45;;;;;;;61.65;3.60;;;;;;;;;;5092738;28;20201;-71
2022/02/22 02:03:14;;;;;;;62.30;4.03;;;;;;;;;;5093034;28;20303;-70
2022/02/22 02:05:41;;;;;;;66.22;3.90;;;;;;;;;;5092896;28;20247;-70
2022/02/22 02:08:09;;;;;;;63.17;3.45;;;;;;;;;;5092717;28;20204;-70
2022/02/22 02:10:36;;;;;;;63.13;4.03;;;;;;;;;;5093076;28;20208;-70
2022/02/22 02:13:03;;;;;;;61.17;3.60;;;;;;;;;;5092719;28;20779;-71
2022/02/22 02:15:30;;;;;;;67.45;4.00;;;;;;;;;;5092762;28;20318;-69
2022/02/22 02:17:57;;;;;;;62.13;3.50;;;;;;;;;;5092451;28;20294;-70
2022/02/22 02:20:26;;;;;;;64.85;3.45;;;;;;;;;;5092801;28;20204;-69
2022/02/22 02:22:56;;;;;;;61.88;3.88;;;;;;;;;;5092567;28;20196;-69
2022/02/22 02:25:23;;;;;;;66.05;3.40;;;;;;;;;;5092929;28;20629;-69
2022/02/22 02:27:50;;;;;;;59.83;3.40;;;;;;;;;;5092322;28;20200;-69
2022/02/22 02:30:18;;;;;;;69.75;3.85;;;;;;;;;;5092252;28;20613;-69
2022/02/22 02:32:45;;;;;;;61.42;3.97;;;;;;;;;;5095516;28;20726;-69
2022/02/22 02:35:12;;;;;;;60.95;3.30;;;;;;;;;;5096360;28;20230;-70
2022/02/22 02:37:40;;;;;;;61.50;3.33;;;;;;;;;;5096488;28;20704;-70
2022/02/22 02:40:10;;;;;;;63.53;4.07;;;;;;;;;;5096827;28;20204;-69
2022/02/22 02:42:41;;;;;;;67.10;4.30;;;;;;;;;;5096414;28;20200;-70
2022/02/22 02:45:09;;;;;;;64.55;3.50;;;;;;;;;;5096467;28;20261;-70
2022/02/22 02:47:36;;;;;;;64.93;4.13;;;;;;;;;;5094442;28;20208;-71
2022/02/22 02:50:03;;;;;;;66.80;3.33;;;;;;;;;;5096303;28;20204;-70
2022/02/22 02:52:30;;;;;;;60.47;3.25;;;;;;;;;;5095666;28;20227;-70
2022/02/22 02:54:58;;;;;;;65.05;4.07;;;;;;;;;;5096210;28;20224;-69
2022/02/22 02:57:27;;;;;;;62.45;3.78;;;;;;;;;;5096482;28;20211;-70
2022/02/22 02:59:55;;;;;;;62.70;4.35;;;;;;;;;;5097070;28;20201;-70
2022/02/22 03:02:23;;;;;;;59.97;3.47;;;;;;;;;;5096699;28;20200;-70
2022/02/22 03:04:50;;;;;;;59.42;3.05;;;;;;;;;;5096742;28;20293;-69
2022/02/22 03:07:17;;;;;;;62.95;4.32;;;;;;;;;;5096179;28;20204;-69
2022/02/22 03:09:44;;;;;;;60.45;3.38;;;;;;;;;;5096553;28;20208;-69
2022/02/22 03:12:11;;;;;;;62.60;3.50;;;;;;;;;;5096464;28;20232;-69
2022/02/22 03:14:40;;;;;;;61.35;3.28;;;;;;;;;;5096361;28;20236;-68
2022/02/22 03:17:07;;;;;;;62.20;3.97;;;;;;;;;;5096327;28;20210;-71
2022/02/22 03:19:34;;;;;;;61.58;3.63;;;;;;;;;;5096158;28;20201;-69
2022/02/22 03:22:01;;;;;;;61.33;3.88;;;;;;;;;;5096196;28;20582;-70
2022/02/22 03:24:28;;;;;;;73.85;4.25;;;;;;;;;;5096159;28;20238;-69
2022/02/22 03:26:55;;;;;;;61.65;3.42;;;;;;;;;;5096401;28;20204;-69
2022/02/22 03:29:22;;;;;;;65.43;3.80;;;;;;;;;;5095751;28;20302;-69
2022/02/22 03:31:51;;;;;;;62.40;3.42;;;;;;;;;;5096119;28;20224;-70
2022/02/22 03:34:18;;;;;;;61.60;3.60;;;;;;;;;;5095980;28;20332;-69
2022/02/22 03:36:45;;;;;;;62.17;3.85;;;;;;;;;;5096413;28;20292;-70
2022/02/22 03:39:12;;;;;;;59.58;3.42;;;;;;;;;;5095743;28;20254;-69
2022/02/22 03:41:39;;;;;;;62.95;3.63;;;;;;;;;;5096180;28;20307;-70
2022/02/22 03:44:07;;;;;;;60.53;3.03;;;;;;;;;;5095401;28;20229;-68
2022/02/22 03:46:34;;;;;;;60.70;3.28;;;;;;;;;;5096218;28;20210;-70
2022/02/22 03:49:02;;;;;;;59.33;3.03;;;;;;;;;;5095611;28;20303;-69
2022/02/22 03:51:29;;;;;;;66.63;3.50;;;;;;;;;;5095942;28;20220;-69
2022/02/22 03:53:56;;;;;;;69.25;4.25;;;;;;;;;;5095638;28;20212;-70
2022/02/22 03:56:23;;;;;;;62.05;3.58;;;;;;;;;;5095610;28;20383;-69
2022/02/22 03:58:51;;;;;;;66.43;3.30;;;;;;;;;;5095460;28;20201;-69
2022/02/22 04:01:18;;;;;;;64.10;3.10;;;;;;;;;;5095559;28;20295;-71
2022/02/22 04:03:45;;;;;;;65.38;3.60;;;;;;;;;;5095361;28;20653;-69
2022/02/22 04:06:13;;;;;;;61.30;3.47;;;;;;;;;;5095761;28;20755;-70
2022/02/22 04:08:41;;;;;;;64.28;4.60;;;;;;;;;;5095341;28;20207;-69
2022/02/22 04:11:08;;;;;;;61.60;3.40;;;;;;;;;;5095655;28;20200;-69
2022/02/22 04:13:35;;;;;;;60.25;3.28;;;;;;;;;;5095587;28;20318;-70
2022/02/22 04:16:02;;;;;;;59.72;3.60;;;;;;;;;;5095257;28;20666;-71
2022/02/22 04:18:30;;;;;;;63.55;3.65;;;;;;;;;;5094931;28;20243;-69
2022/02/22 04:20:57;;;;;;;59.58;3.63;;;;;;;;;;5095406;28;20291;-70
2022/02/22 04:23:25;;;;;;;63.25;4.03;;;;;;;;;;5095832;28;20300;-70
2022/02/22 04:25:52;;;;;;;67.72;4.32;;;;;;;;;;5095122;28;20320;-70
2022/02/22 04:28:20;;;;;;;64.72;3.75;;;;;;;;;;5095045;28;20242;-70
2022/02/22 04:30:47;;;;;;;63.40;3.80;;;;;;;;;;5095648;28;20227;-71
2022/02/22 04:33:14;;;;;;;61.92;4.07;;;;;;;;;;5095447;28;20220;-70
2022/02/22 04:35:41;;;;;;;67.97;3.50;;;;;;;;;;5095686;28;20224;-70
2022/02/22 04:38:08;;;;;;;64.57;4.70;;;;;;;;;;5094996;28;20676;-69
2022/02/22 04:40:36;;;;;;;62.60;4.20;;;;;;;;;;5095362;28;20207;-70
2022/02/22 04:43:04;;;;;;;62.22;3.85;;;;;;;;;;5094992;28;20200;-70
2022/02/22 04:45:31;;;;;;;62.15;3.78;;;;;;;;;;5095246;28;20224;-70
2022/02/22 04:47:58;;;;;;;62.78;4.53;;;;;;;;;;5094740;28;20240;-70
2022/02/22 04:50:25;;;;;;;62.58;3.75;;;;;;;;;;5094741;28;20215;-70
2022/02/22 04:52:53;;;;;;;59.63;4.13;;;;;;;;;;5094672;28;20226;-70
2022/02/22 04:55:20;;;;;;;60.97;4.75;;;;;;;;;;5093809;28;20606;-70
2022/02/22 04:57:48;;;;;;;62.67;4.22;;;;;;;;;;5094351;28;20207;-70
2022/02/22 05:00:16;;;;;;;62.83;4.90;;;;;;;;;;5094523;28;20214;-70
2022/02/22 05:02:44;;;;;;;61.13;4.45;;;;;;;;;;5094769;28;20292;-71
2022/02/22 05:05:11;;;;;;;65.18;5.30;;;;;;;;;;5094828;28;20315;-70
2022/02/22 05:07:38;;;;;;;62.20;4.93;;;;;;;;;;5094278;28;20210;-70
2022/02/22 05:10:06;;;;;;;67.25;5.18;;;;;;;;;;5094667;28;20687;-70
2022/02/22 05:12:33;;;;;;;63.95;4.50;;;;;;;;;;5094054;28;20220;-70
2022/02/22 05:15:01;;;;;;;62.00;5.47;;;;;;;;;;5094249;28;20224;-70
2022/02/22 05:17:29;;;;;;;61.38;5.03;;;;;;;;;;5093673;28;20200;-69
2022/02/22 05:19:56;;;;;;;64.75;6.13;;;;;;;;;;5094130;28;20215;-70
2022/02/22 05:22:23;;;;;;;60.70;5.07;;;;;;;;;;5093188;28;20209;-70
2022/02/22 05:24:50;;;;;;;68.20;4.80;;;;;;;;;;5092841;28;20319;-70
2022/02/22 05:27:19;;;;;;;64.68;5.10;;;;;;;;;;5092843;28;20226;-70
2022/02/22 05:29:46;;;;;;;62.95;4.32;;;;;;;;;;5092822;28;20227;-70
2022/02/22 05:32:15;;;;;;;64.13;4.60;;;;;;;;;;5093323;28;20657;-70
2022/02/22 05:34:42;;;;;;;60.97;5.18;;;;;;;;;;5094217;28;20292;-70
2022/02/22 05:37:09;;;;;;;65.35;6.90;;;;;;;;;;5094177;28;20204;-69
2022/02/22 05:39:36;;;;;;;74.47;8.27;;;;;;;;;;5094264;28;20299;-70
2022/02/22 05:42:03;;;;;;;65.03;7.22;;;;;;;;;;5094615;28;20574;-70
2022/02/22 05:44:30;;;;;;;67.93;4.30;;;;;;;;;;5094060;28;20228;-69
2022/02/22 05:46:58;;;;;;;67.15;4.68;;;;;;;;;;5094312;28;20268;-70
2022/02/22 05:49:26;;;;;;;65.43;4.68;;;;;;;;;;5093566;28;20206;-71
2022/02/22 05:51:54;;;;;;;60.03;4.28;;;;;;;;;;5093899;28;20208;-70
2022/02/22 05:54:21;;;;;;;59.78;4.60;;;;;;;;;;5093811;28;20244;-70
2022/02/22 05:56:49;;;;;;;62.55;4.45;;;;;;;;;;5094019;28;20204;-70
2022/02/22 05:59:16;;;;;;;61.15;4.43;;;;;;;;;;5093557;28;20208;-70
2022/02/22 06:01:44;;;;;;;62.47;3.90;;;;;;;;;;5094220;28;20204;-71
2022/02/22 06:04:11;;;;;;;60.40;4.50;;;;;;;;;;5093731;28;20599;-70
2022/02/22 06:06:40;;;;;;;61.85;4.70;;;;;;;;;;5093353;28;20250;-70
2022/02/22 06:09:09;;;;;;;64.40;4.55;;;;;;;;;;5093305;28;20299;-70
2022/02/22 06:11:36;;;;;;;65.50;4.55;;;;;;;;;;5093785;28;20200;-70
2022/02/22 06:14:03;;;;;;;62.35;4.18;;;;;;;;;;5093678;28;20323;-70
2022/02/22 06:16:30;;;;;;;63.83;4.50;;;;;;;;;;5093849;28;20273;-70
2022/02/22 06:18:57;;;;;;;64.93;4.75;;;;;;;;;;5093290;28;20295;-70
2022/02/22 06:21:25;;;;;;;60.85;4.45;;;;;;;;;;5093900;28;20208;-70
2022/02/22 06:23:53;;;;;;;64.68;5.13;;;;;;;;;;5093575;28;20200;-71
2022/02/22 06:26:20;;;;;;;65.47;4.20;;;;;;;;;;5093518;28;20295;-70
2022/02/22 06:28:48;;;;;;;64.45;4.30;;;;;;;;;;5093464;28;20302;-70
2022/02/22 06:31:15;;;;;;;66.35;4.70;;;;;;;;;;5093963;28;20310;-70
2022/02/22 06:33:42;;;;;;;67.50;4.40;;;;;;;;;;5093436;28;20717;-72
2022/02/22 06:36:09;;;;;;;60.65;4.32;;;;;;;;;;5093292;28;20294;-70
2022/02/22 06:38:36;;;;;;;62.05;4.60;;;;;;;;;;5092978;28;20208;-71
2022/02/22 06:41:05;;;;;;;61.70;4.25;;;;;;;;;;5093295;28;20238;-70
2022/02/22 06:43:32;;;;;;;63.38;5.10;;;;;;;;;;5093209;28;20196;-71
2022/02/22 06:45:59;;;;;;;61.10;4.60;;;;;;;;;;5093260;28;20227;-71
2022/02/22 06:48:26;;;;;;;63.55;4.80;;;;;;;;;;5092936;28;20291;-70
2022/02/22 06:50:53;;;;;;;66.35;4.80;;;;;;;;;;5092687;28;20703;-70
2022/02/22 06:53:21;;;;;;;63.35;4.47;;;;;;;;;;5092684;28;20238;-71
2022/02/22 06:55:48;;;;;;;62.30;4.20;;;;;;;;;;5092645;28;20319;-70
2022/02/22 06:58:16;;;;;;;68.30;5.00;;;;;;;;;;5092495;28;20291;-70
2022/02/22 07:00:46;;;;;;;62.22;5.53;;;;;;;;;;5092848;28;20692;-70
2022/02/22 07:03:13;;;;;;;71.28;4.68;;;;;;;;;;5092651;28;20238;-71
2022/02/22 07:05:40;;;;;;;62.58;4.45;;;;;;;;;;5092265;28;20227;-70
2022/02/22 07:08:07;;;;;;;64.45;4.63;;;;;;;;;;5092066;28;20212;-71
2022/02/22 07:10:34;;;;;;;63.15;4.65;;;;;;;;;;5093192;28;20552;-70
2022/02/22 07:13:01;;;;;;;64.95;5.40;;;;;;;;;;5092680;28;20384;-70
2022/02/22 07:15:30;;;;;;;63.45;4.40;;;;;;;;;;5092324;28;20242;-70
2022/02/22 07:17:58;;;;;;;63.95;5.28;;;;;;;;;;5092349;28;20216;-71
2022/02/22 07:20:26;;;;;;;62.65;4.20;;;;;;;;;;5095604;28;20643;-70
2022/02/22 07:22:55;;;;;;;65.32;4.80;;;;;;;;;;5095705;28;20200;-70
2022/02/22 07:25:23;;;;;;;67.95;5.90;;;;;;;;;;5095484;28;20579;-70
2022/02/22 07:27:50;;;;;;;59.60;4.45;;;;;;;;;;5094844;28;20200;-70
2022/02/22 07:30:18;;;;;;;65.45;6.32;;;;;;;;;;5095119;28;20261;-71
2022/02/22 07:32:47;;;;;;;71.10;5.97;;;;;;;;;;5095380;28;20427;-70
2022/02/22 07:35:14;;;;;;;64.35;6.25;;;;;;;;;;5095666;28;20226;-71
2022/02/22 07:37:42;;;;;;;60.63;4.45;;;;;;;;;;5095494;28;20212;-70
2022/02/22 07:40:10;;;;;;;69.43;4.95;;;;;;;;;;5095166;28;20211;-70
2022/02/22 07:42:37;;;;;;;65.70;4.60;;;;;;;;;;5095116;28;20299;-70
2022/02/22 07:45:05;;;;;;;62.10;4.90;;;;;;;;;;5094995;28;20738;-70
2022/02/22 07:47:32;;;;;;;63.92;4.55;;;;;;;;;;5094903;28;20690;-70
2022/02/22 07:50:01;;;;;;;61.08;5.80;;;;;;;;;;5095035;28;20299;-70
2022/02/22 07:52:28;;;;;;;65.38;7.35;;;;;;;;;;5094780;28;20210;-70
2022/02/22 07:54:55;;;;;;;69.22;7.43;;;;;;;;;;5094552;28;20228;-71
2022/02/22 07:57:22;;;;;;;64.45;5.00;;;;;;;;;;5094796;28;20577;-70
2022/02/22 07:59:50;;;;;;;62.13;5.25;;;;;;;;;;5094543;28;20295;-68
2022/02/22 08:02:17;;;;;;;64.13;5.15;;;;;;;;;;5094590;28;20736;-69
2022/02/22 08:04:44;;;;;;;62.85;4.88;;;;;;;;;;5094546;28;20224;-68
2022/02/22 08:07:14;;;;;;;61.28;4.30;;;;;;;;;;5091927;28;20333;-67
2022/02/22 08:09:41;;;;;;;64.22;5.32;;;;;;;;;;5094745;28;20209;-68
2022/02/22 08:12:09;;;;;;;66.18;5.10;;;;;;;;;;5074528;28;20567;-66
2022/02/22 08:14:36;;;;;;;68.22;6.35;;;;;;;;;;5074088;28;20235;-67
2022/02/22 08:17:03;;;;;;;63.60;4.60;;;;;;;;;;5073950;28;20211;-68
2022/02/22 08:19:31;;;;;;;63.05;4.40;;;;;;;;;;5073753;28;20210;-67
2022/02/22 08:21:58;;;;;;;67.90;4.90;;;;;;;;;;5073911;28;20217;-70
2022/02/22 08:24:27;;;;;;;61.35;4.70;;;;;;;;;;5074197;28;20225;-69
2022/02/22 08:26:55;;;;;;;65.83;4.23;;;;;;;;;;5073995;28;20577;-69
2022/02/22 08:29:22;;;;;;;61.55;4.47;;;;;;;;;;5073267;28;20971;-69
2022/02/22 08:31:50;;;;;;;63.97;4.70;;;;;;;;;;5073936;28;20210;-67
2022/02/22 08:34:17;;;;;;;68.75;4.82;;;;;;;;;;5074078;28;20634;-67
2022/02/22 08:36:44;;;;;;;64.95;4.75;;;;;;;;;;5073741;28;20210;-68
2022/02/22 08:39:12;;;;;;;66.55;5.20;;;;;;;;;;5073622;28;20228;-69
2022/02/22 08:41:40;;;;;;;65.53;3.90;;;;;;;;;;5073844;28;20202;-69
2022/02/22 08:44:09;;;;;;;61.40;3.80;;;;;;;;;;5073426;28;20469;-67
2022/02/22 08:46:36;;;;;;;61.63;3.80;;;;;;;;;;5073534;28;20596;-67
2022/02/22 08:49:04;;;;;;;65.77;3.90;;;;;;;;;;5072842;28;20216;-67
2022/02/22 08:51:31;;;;;;;63.30;3.73;;;;;;;;;;5073778;28;20543;-67
2022/02/22 08:53:58;;;;;;;62.17;4.97;;;;;;;;;;5073414;28;21025;-67
2022/02/22 08:56:25;;;;;;;66.23;3.53;;;;;;;;;;5073413;28;20446;-68
2022/02/22 08:58:54;;;;;;;62.30;4.03;;;;;;;;;;5073079;28;20448;-67
2022/02/22 09:01:21;;;;;;;64.80;4.40;;;;;;;;;;5073087;28;20530;-68
2022/02/22 09:03:48;;;;;;;62.60;4.10;;;;;;;;;;5073350;28;20441;-70
2022/02/22 09:06:15;;;;;;;62.63;3.97;;;;;;;;;;5073243;28;20541;-68
2022/02/22 09:08:42;;;;;;;65.70;4.20;;;;;;;;;;5072807;28;20446;-69
2022/02/22 09:11:09;;;;;;;69.67;4.30;;;;;;;;;;5073114;28;20450;-68
2022/02/22 09:13:37;;;;;;;60.23;3.83;;;;;;;;;;5072715;28;20568;-70
2022/02/22 09:16:05;;;;;;;64.53;4.47;;;;;;;;;;5072592;28;20552;-66
2022/02/22 09:18:33;;;;;;;62.17;3.70;;;;;;;;;;5072714;28;20453;-66
2022/02/22 09:21:00;;;;;;;63.27;4.20;;;;;;;;;;5072876;28;20448;-68
2022/02/22 09:23:27;;;;;;;61.10;3.93;;;;;;;;;;5072827;28;20970;-71
2022/02/22 09:25:55;;;;;;;63.83;3.80;;;;;;;;;;5072548;28;20561;-70
2022/02/22 09:28:23;;;;;;;66.23;3.80;;;;;;;;;;5072436;28;20459;-70
2022/02/22 09:30:50;;;;;;;60.97;3.47;;;;;;;;;;5072689;28;20458;-68
2022/02/22 09:33:18;;;;;;;68.63;5.20;;;;;;;;;;5072644;28;20485;-71
2022/02/22 09:35:46;;;;;;;63.77;3.80;;;;;;;;;;5072943;28;20482;-68
2022/02/22 09:38:13;;;;;;;62.67;4.67;;;;;;;;;;5072124;28;21066;-70
2022/02/22 09:40:40;;;;;;;66.33;3.93;;;;;;;;;;5072116;28;20540;-70
2022/02/22 09:43:08;;;;;;;64.43;4.17;;;;;;;;;;5072295;28;20469;-71
2022/02/22 09:45:35;;;;;;;61.35;3.55;;;;;;;;;;5072361;28;20467;-69
2022/02/22 09:48:04;;;;;;;67.43;4.50;;;;;;;;;;5071964;28;20679;-70
2022/02/22 09:50:34;;;;;;;64.20;4.10;;;;;;;;;;5072293;28;20234;-69
2022/02/22 09:53:02;;;;;;;70.43;4.40;;;;;;;;;;5072355;28;20497;-70
2022/02/22 09:55:29;;;;;;;60.87;3.63;;;;;;;;;;5072073;28;20481;-68
2022/02/22 09:57:57;;;;;;;64.70;3.50;;;;;;;;;;5071612;28;20825;-68
2022/02/22 10:00:25;;;;;;;62.40;3.77;;;;;;;;;;5071749;28;20460;-69
2022/02/22 10:02:52;;;;;;;62.87;3.80;;;;;;;;;;5076603;28;20451;-69
2022/02/22 10:05:20;;;;;;;61.40;3.53;;;;;;;;;;5092246;28;20833;-70
2022/02/22 10:07:50;;;;;;;72.73;3.37;;;;;;;;;;5092007;28;20448;-68
2022/02/22 10:10:18;;;;;;;63.27;3.70;;;;;;;;;;5092067;28;20449;-68
2022/02/22 10:12:45;;;;;;;63.37;4.13;;;;;;;;;;5092179;28;20455;-70
2022/02/22 10:15:12;;;;;;;63.77;3.60;;;;;;;;;;5092250;28;20492;-67
2022/02/22 10:17:40;;;;;;;71.77;3.50;;;;;;;;;;5091793;28;20457;-67
2022/02/22 10:20:09;;;;;;;66.33;3.30;;;;;;;;;;5091987;28;20481;-68
2022/02/22 10:22:46;;;;;;;59.87;3.60;;;;;;;;;;5092211;28;20449;-69
2022/02/22 10:25:15;;;;;;;66.80;4.13;;;;;;;;;;5091912;28;20556;-67
2022/02/22 10:27:43;;;;;;;62.40;4.17;;;;;;;;;;5091886;28;20475;-69
2022/02/22 10:30:24;;;;;;;61.20;3.40;;;;;;;;;;5091939;28;20953;-69
2022/02/22 10:32:52;;;;;;;64.37;4.57;;;;;;;;;;5091836;28;20449;-68
2022/02/22 10:35:27;;;;;;;67.27;4.20;;;;;;;;;;5091574;28;20911;-69
2022/02/22 10:37:54;;;;;;;60.03;3.73;;;;;;;;;;5091690;28;20965;-68
2022/02/22 10:40:27;;;;;;;61.97;4.30;;;;;;;;;;5091836;28;20547;-67
2022/02/22 10:42:54;;;;;;;67.63;4.20;;;;;;;;;;5091792;28;20449;-68
2022/02/22 10:45:21;;;;;;;69.83;4.10;;;;;;;;;;5091569;28;20466;-69
2022/02/22 10:47:49;;;;;;;69.63;4.57;;;;;;;;;;5088847;28;20512;-68
2022/02/22 10:50:17;;;;;;;61.87;4.20;;;;;;;;;;5091723;28;20858;-69
2022/02/22 10:52:44;;;;;;;62.30;3.87;;;;;;;;;;5091386;28;20548;-68
2022/02/22 10:55:11;;;;;;;63.90;3.63;;;;;;;;;;5095518;28;20575;-69
2022/02/22 10:57:40;;;;;;;62.40;3.97;;;;;;;;;;5095437;28;20956;-69
2022/02/22 11:00:08;;;;;;;60.27;3.90;;;;;;;;;;5095409;28;20449;-69
2022/02/22 11:02:35;;;;;;;62.20;4.63;;;;;;;;;;5095417;28;20957;-70
2022/02/22 11:05:02;;;;;;;62.57;3.83;;;;;;;;;;5095557;28;20501;-68
2022/02/22 11:07:30;;;;;;;63.10;4.03;;;;;;;;;;5095228;28;20946;-69
2022/02/22 11:09:58;;;;;;;62.60;4.07;;;;;;;;;;5095384;28;20445;-69
2022/02/22 11:12:29;;;;;;;61.40;4.00;;;;;;;;;;5095198;28;20450;-74
2022/02/22 11:15:06;;;;;;;60.37;3.50;;;;;;;;;;5095330;28;20496;-70
2022/02/22 11:17:33;;;;;;;67.80;3.90;;;;;;;;;;5095114;28;20531;-69
2022/02/22 11:20:00;;;;;;;62.50;3.73;;;;;;;;;;5095209;28;20461;-69
2022/02/22 11:22:28;;;;;;;60.20;4.00;;;;;;;;;;5095103;28;20538;-69
2022/02/22 11:24:56;;;;;;;68.90;4.73;;;;;;;;;;5095041;28;20464;-69
2022/02/22 11:27:27;;;;;;;67.40;4.77;;;;;;;;;;5094740;28;20456;-70
2022/02/22 11:29:59;;;;;;;62.23;4.63;;;;;;;;;;5094688;28;20457;-70
2022/02/22 11:32:28;;;;;;;64.30;4.10;;;;;;;;;;5094822;28;20461;-69
2022/02/22 11:34:55;;;;;;;60.67;3.70;;;;;;;;;;5095079;28;20493;-69
2022/02/22 11:37:29;;;;;;;67.70;4.70;;;;;;;;;;5094396;28;20984;-70
2022/02/22 11:39:56;;;;;;;61.27;4.00;;;;;;;;;;5094998;28;20453;-70
2022/02/22 11:42:24;;;;;;;73.03;4.80;;;;;;;;;;5094912;28;20506;-71
2022/02/22 11:44:58;;;;;;;63.30;4.23;;;;;;;;;;5094984;28;20466;-71
2022/02/22 11:47:26;;;;;;;60.87;3.57;;;;;;;;;;5094655;28;20453;-71
2022/02/22 11:49:56;;;;;;;73.53;4.60;;;;;;;;;;5094786;28;20456;-71
2022/02/22 11:52:35;;;;;;;72.23;4.07;;;;;;;;;;5094579;28;20450;-71
2022/02/22 11:55:03;;;;;;;62.93;3.73;;;;;;;;;;5094920;28;20488;-71
2022/02/22 11:57:30;;;;;;;63.27;4.67;;;;;;;;;;5094451;28;20824;-71
2022/02/22 11:59:59;;;;;;;60.80;4.00;;;;;;;;;;5094470;28;20513;-71
2022/02/22 12:02:28;;;;;;;62.40;4.30;;;;;;;;;;5094379;28;20532;-70
2022/02/22 12:04:56;;;;;;;67.63;6.17;;;;;;;;;;5093587;28;20477;-70
2022/02/22 12:07:27;;;;;;;78.97;4.30;;;;;;;;;;5094339;28;20457;-71
2022/02/22 12:09:55;;;;;;;66.57;4.80;;;;;;;;;;5094598;28;20526;-70
2022/02/22 12:12:23;;;;;;;66.57;4.87;;;;;;;;;;5093980;28;20438;-70
2022/02/22 12:14:54;;;;;;;68.00;4.90;;;;;;;;;;5094155;28;20488;-71
2022/02/22 12:17:22;;;;;;;62.10;4.80;;;;;;;;;;5093751;28;20529;-72
2022/02/22 12:19:49;;;;;;;65.43;4.60;;;;;;;;;;5094396;28;20536;-70
2022/02/22 12:22:19;;;;;;;64.30;4.13;;;;;;;;;;5094347;28;20826;-72
2022/02/22 12:24:46;;;;;;;63.00;4.47;;;;;;;;;;5094124;28;20557;-72
2022/02/22 12:27:14;;;;;;;62.37;4.07;;;;;;;;;;5093814;28;20442;-70
2022/02/22 12:29:41;;;;;;;66.03;4.43;;;;;;;;;;5093937;28;20461;-71
2022/02/22 12:32:09;;;;;;;67.67;4.30;;;;;;;;;;5093880;28;20450;-70
2022/02/22 12:34:37;;;;;;;67.27;4.57;;;;;;;;;;5093519;28;20578;-70
2022/02/22 12:37:05;;;;;;;61.30;3.97;;;;;;;;;;5094002;28;20449;-72
2022/02/22 12:39:35;;;;;;;67.37;4.37;;;;;;;;;;5093730;28;20450;-70
2022/02/22 12:42:03;;;;;;;62.57;4.60;;;;;;;;;;5093717;28;20833;-71
2022/02/22 12:44:31;;;;;;;63.30;4.50;;;;;;;;;;5093306;28;21044;-71
2022/02/22 12:47:01;;;;;;;65.50;5.00;;;;;;;;;;5093721;28;20461;-71
2022/02/22 12:49:28;;;;;;;72.10;5.30;;;;;;;;;;5093895;28;20867;-70
2022/02/22 12:51:59;;;;;;;61.40;3.90;;;;;;;;;;5093567;28;20456;-70
2022/02/22 12:54:26;;;;;;;62.87;4.00;;;;;;;;;;5093437;28;20488;-70
2022/02/22 12:56:55;;;;;;;64.00;4.37;;;;;;;;;;5093311;28;20953;-71
2022/02/22 12:59:24;;;;;;;62.40;3.83;;;;;;;;;;5093395;28;20472;-71
2022/02/22 13:01:52;;;;;;;61.80;4.13;;;;;;;;;;5093513;28;20449;-71
2022/02/22 13:04:21;;;;;;;66.10;4.13;;;;;;;;;;5093195;28;21023;-70
2022/02/22 13:06:49;;;;;;;62.23;3.73;;;;;;;;;;5093364;28;20541;-72
2022/02/22 13:09:16;;;;;;;64.83;4.40;;;;;;;;;;5092908;28;20564;-70
2022/02/22 13:11:44;;;;;;;63.27;4.40;;;;;;;;;;5093331;28;20446;-70
2022/02/22 13:14:13;;;;;;;64.27;3.20;;;;;;;;;;5093121;28;20557;-70
2022/02/22 13:16:50;;;;;;;66.83;4.20;;;;;;;;;;5092171;28;20442;-70
2022/02/22 13:19:27;;;;;;;62.20;4.07;;;;;;;;;;5093038;28;20798;-70
2022/02/22 13:21:55;;;;;;;62.73;4.20;;;;;;;;;;5092811;28;20454;-69
2022/02/22 13:24:22;;;;;;;61.07;3.90;;;;;;;;;;5093125;28;20553;-70
2022/02/22 13:26:49;;;;;;;60.63;3.60;;;;;;;;;;5092812;28;20548;-72
2022/02/22 13:29:17;;;;;;;59.57;3.77;;;;;;;;;;5092640;28;20583;-70
2022/02/22 13:31:45;;;;;;;64.57;3.80;;;;;;;;;;5092853;28;20448;-70
2022/02/22 13:34:13;;;;;;;60.57;3.33;;;;;;;;;;5092637;28;20881;-71
2022/02/22 13:36:41;;;;;;;61.30;3.53;;;;;;;;;;5092568;28;20451;-70
2022/02/22 13:39:09;;;;;;;66.07;3.60;;;;;;;;;;5092619;28;20444;-70
2022/02/22 13:41:37;;;;;;;63.30;4.80;;;;;;;;;;5092964;28;20442;-70
2022/02/22 13:44:05;;;;;;;62.17;3.77;;;;;;;;;;5092556;28;20466;-71
2022/02/22 13:46:34;;;;;;;61.87;3.20;;;;;;;;;;5092434;28;20521;-72
2022/02/22 13:49:02;;;;;;;62.37;3.67;;;;;;;;;;5092065;28;20445;-69
2022/02/22 13:51:39;;;;;;;66.73;3.57;;;;;;;;;;5092585;28;20537;-70
2022/02/22 13:54:07;;;;;;;62.47;3.23;;;;;;;;;;5092216;28;20498;-70
2022/02/22 13:56:35;;;;;;;71.00;3.67;;;;;;;;;;5092246;28;20520;-72
2022/02/22 13:59:06;;;;;;;70.83;5.10;;;;;;;;;;5092212;28;20503;-72
2022/02/22 14:01:45;;;;;;;64.00;2.90;;;;;;;;;;5092069;28;20449;-70
2022/02/22 14:04:12;;;;;;;65.60;4.17;;;;;;;;;;5092180;28;21037;-71
2022/02/22 14:06:39;;;;;;;60.57;3.57;;;;;;;;;;5092287;28;20456;-70
2022/02/22 14:09:07;;;;;;;63.73;3.80;;;;;;;;;;5091856;28;20442;-71
2022/02/22 14:11:44;;;;;;;63.10;3.50;;;;;;;;;;5092003;28;20445;-72
2022/02/22 14:14:12;;;;;;;64.83;4.20;;;;;;;;;;5091894;28;20569;-72
2022/02/22 14:16:40;;;;;;;64.43;4.10;;;;;;;;;;5092151;28;20489;-72
2022/02/22 14:19:09;;;;;;;67.17;3.63;;;;;;;;;;5091955;28;20453;-73
2022/02/22 14:21:36;;;;;;;61.37;3.50;;;;;;;;;;5092194;28;20488;-72
2022/02/22 14:24:04;;;;;;;62.30;3.40;;;;;;;;;;5091862;28;20471;-70
2022/02/22 14:26:31;;;;;;;63.77;3.37;;;;;;;;;;5091744;28;20963;-71
2022/02/22 14:28:58;;;;;;;67.30;4.73;;;;;;;;;;5091662;28;20883;-71
2022/02/22 14:31:26;;;;;;;61.90;3.63;;;;;;;;;;5092228;28;20854;-71
2022/02/22 14:33:53;;;;;;;61.57;3.60;;;;;;;;;;5091910;28;20552;-72